Terminal Aerodrome Forecast
Issued by NWS Green Bay, WI

Home | Current Version | Previous Version | Text Only | Print | Product List | Glossary On
Versions: 1 2 3 4 5 6 7 8 9 10 11 12 13 14 15 16 17 18 19 20 21 22 23 24 25 26 27 28 29 30 31 32
000
FTUS43 KGRB 211700
TAFGRB
TAF
KGRB 211734Z 2118/2218 04012G17KT P6SM FEW030
     FM212300 05007KT P6SM SKC
     FM220500 06003KT P6SM SKC
      TEMPO 2209/2212 4SM BR
     FM221400 11005KT P6SM SCT200=

USA.gov is the U.S. government's official web portal to all federal, state and local government web resources and services.